Time;durP1;ratioP1;P1;durP2;ratioP2;P2;SDS_P1;SDS_P2;PMS_P1;PMS_P2;Temp;Humidity;BMP_temperature;BMP_pressure;BME280_temperature;BME280_humidity;BME280_pressure;Samples;Min_cycle;Max_cycle;Signal;HPM_P1;HPM_P2
2021/06/02 00:02:23;;;;;;;19.20;10.10;;;;;;;10.72;100.00;99437.39;1605398;89;21120;-78
2021/06/02 00:04:51;;;;;;;17.98;10.78;;;;;;;10.72;100.00;99437.39;1605860;89;21606;-80
2021/06/02 00:07:24;;;;;;;18.20;10.75;;;;;;;10.72;100.00;99441.45;1605638;89;21124;-80
2021/06/02 00:09:53;;;;;;;16.97;10.10;;;;;;;10.74;100.00;99448.86;1540022;93;21119;-80
2021/06/02 00:12:22;;;;;;;22.48;13.68;;;;;;;10.73;100.00;99437.22;1556155;92;21233;-82
2021/06/02 00:14:50;;;;;;;338.30;136.92;;;;;;;10.73;100.00;99431.80;1565982;91;21111;-81
2021/06/02 00:17:17;;;;;;;112.08;49.65;;;;;;;10.74;100.00;99425.88;1550828;92;21178;-80
2021/06/02 00:19:45;;;;;;;24.18;12.75;;;;;;;10.76;100.00;99446.80;1567437;91;21612;-79
2021/06/02 00:22:13;;;;;;;28.67;15.03;;;;;;;10.76;100.00;99451.69;1542350;93;21140;-82
2021/06/02 00:24:40;;;;;;;21.97;14.18;;;;;;;10.79;100.00;99457.25;1542529;93;21159;-78
2021/06/02 00:27:12;;;;;;;20.68;12.15;;;;;;;10.81;100.00;99463.31;1542498;93;21087;-79
2021/06/02 00:29:40;;;;;;;28.38;14.68;;;;;;;10.82;100.00;99452.31;1538857;92;21073;-79
2021/06/02 00:32:13;;;;;;;74.73;35.17;;;;;;;10.82;100.00;99456.37;1563159;92;21069;-79
2021/06/02 00:34:40;;;;;;;75.60;40.15;;;;;;;10.82;100.00;99452.83;1581429;91;21079;-78
2021/06/02 00:37:08;;;;;;;35.48;22.30;;;;;;;10.83;100.00;99451.27;1566240;91;21095;-80
2021/06/02 00:39:36;;;;;;;38.67;27.73;;;;;;;10.85;100.00;99449.73;1551015;92;21128;-80
2021/06/02 00:42:05;;;;;;;27.35;16.85;;;;;;;10.85;100.00;99448.38;1550912;92;21093;-80
2021/06/02 00:44:31;;;;;;;22.07;11.88;;;;;;;10.86;100.00;99455.48;1581012;90;21139;-80
2021/06/02 00:47:00;;;;;;;13.23;7.60;;;;;;;10.89;100.00;99455.60;1683384;84;21099;-80
2021/06/02 00:49:27;;;;;;;11.20;5.78;;;;;;;10.90;100.00;99451.36;1680700;85;21075;-80
2021/06/02 00:52:00;;;;;;;17.20;10.13;;;;;;;10.92;100.00;99451.18;1680535;85;21746;-80
2021/06/02 00:54:31;;;;;;;102.85;43.10;;;;;;;10.92;100.00;99447.95;1680558;85;21079;-81
2021/06/02 00:57:13;;;;;;;89.07;40.63;;;;;;;10.92;100.00;99442.55;1680477;85;21079;-81
2021/06/02 00:59:53;;;;;;;112.60;51.60;;;;;;;10.96;100.00;99441.66;1677971;85;21548;-80
2021/06/02 01:02:22;;;;;;;338.77;171.80;;;;;;;10.95;100.00;99432.70;1677218;85;21114;-81
2021/06/02 01:04:51;;;;;;;116.97;61.55;;;;;;;10.97;100.00;99425.23;1680734;85;21067;-81
2021/06/02 01:07:21;;;;;;;125.27;65.83;;;;;;;10.96;100.00;99424.93;1761998;81;21087;-80
2021/06/02 01:09:52;;;;;;;77.63;40.50;;;;;;;10.97;100.00;99432.00;1753334;81;21082;-81
2021/06/02 01:12:21;;;;;;;30.25;15.08;;;;;;;10.97;100.00;99438.77;1778749;81;21106;-81
2021/06/02 01:14:49;;;;;;;32.93;17.65;;;;;;;11.00;100.00;99440.27;1778415;81;21075;-81
2021/06/02 01:17:18;;;;;;;609.33;243.67;;;;;;;11.01;100.00;99436.52;1783894;79;21529;-80
2021/06/02 01:19:47;;;;;;;85.03;57.62;;;;;;;11.01;100.00;99437.87;1797704;80;21060;-80
2021/06/02 01:22:14;;;;;;;42.60;28.77;;;;;;;11.01;100.00;99446.84;1801463;80;20993;-81
2021/06/02 01:24:41;;;;;;;28.10;18.35;;;;;;;11.02;100.00;99447.16;1797745;80;21016;-81
2021/06/02 01:27:11;;;;;;;70.67;35.33;;;;;;;11.05;100.00;99446.45;1801021;80;21052;-81
2021/06/02 01:29:44;;;;;;;31.68;16.23;;;;;;;11.06;100.00;99441.38;1797933;80;21047;-79
2021/06/02 01:32:31;;;;;;;33.85;17.85;;;;;;;11.06;100.00;99448.14;1801495;80;21072;-80
2021/06/02 01:35:40;;;;;;;36.10;20.82;;;;;;;11.06;100.00;99450.32;1796928;80;21083;-80
2021/06/02 01:39:04;;;;;;;47.70;25.17;;;;;;;11.07;100.00;99455.24;1801614;80;21048;-80
2021/06/02 01:41:54;;;;;;;45.25;27.17;;;;;;;11.07;100.00;99449.31;1798198;80;21052;-80
2021/06/02 01:45:07;;;;;;;34.77;19.43;;;;;;;11.07;100.00;99442.55;1784792;80;21044;-80
2021/06/02 01:47:40;;;;;;;31.00;17.50;;;;;;;11.07;100.00;99446.60;1766573;81;21060;-80
2021/06/02 01:50:39;;;;;;;77.72;41.63;;;;;;;11.09;100.00;99436.95;1777184;80;21033;-81
2021/06/02 01:53:43;;;;;;;55.92;25.92;;;;;;;11.10;100.00;99439.47;1766726;81;21056;-82
2021/06/02 01:56:55;;;;;;;40.23;19.90;;;;;;;11.12;100.00;99429.78;1783903;80;21016;-82
2021/06/02 02:00:10;;;;;;;22.00;12.15;;;;;;;11.12;100.00;99424.37;1766829;81;21091;-82
2021/06/02 02:03:11;;;;;;;51.58;25.27;;;;;;;11.13;100.00;99422.83;1783738;80;20992;-81
2021/06/02 02:06:20;;;;;;;73.50;36.08;;;;;;;11.15;100.00;99434.83;1767503;81;21071;-81
2021/06/02 02:09:38;;;;;;;73.57;40.98;;;;;;;11.13;100.00;99427.41;1784934;78;21025;-80
2021/06/02 02:12:37;;;;;;;33.13;17.70;;;;;;;11.15;100.00;99422.65;1767764;81;21071;-83
2021/06/02 02:15:46;;;;;;;27.77;15.58;;;;;;;11.17;100.00;99423.29;1783014;80;21072;-81
2021/06/02 02:19:03;;;;;;;27.73;16.10;;;;;;;11.18;100.00;99427.16;1766145;81;21083;-81
2021/06/02 02:21:43;;;;;;;13.85;8.65;;;;;;;11.21;100.00;99428.14;1724381;83;21088;-81
2021/06/02 02:24:31;;;;;;;23.15;14.03;;;;;;;11.23;100.00;99431.19;1717960;84;21051;-81
2021/06/02 02:27:23;;;;;;;21.97;12.88;;;;;;;11.23;100.00;99425.78;1717829;84;21568;-82
2021/06/02 02:30:12;;;;;;;14.50;8.35;;;;;;;11.25;100.00;99430.48;1691056;84;21079;-80
2021/06/02 02:33:06;;;;;;;10.35;5.60;;;;;;;11.25;100.00;99428.60;1689066;85;21561;-81
2021/06/02 02:35:53;;;;;;;19.30;10.00;;;;;;;11.27;100.00;99427.89;1689286;85;21039;-80
2021/06/02 02:39:01;;;;;;;16.07;7.30;;;;;;;11.30;100.00;99418.56;1689196;85;21075;-79
2021/06/02 02:41:53;;;;;;;18.37;8.45;;;;;;;11.29;100.00;99409.59;1689110;85;21102;-80
2021/06/02 02:44:48;;;;;;;10.25;5.80;;;;;;;11.32;100.00;99419.21;1640472;87;21131;-81
2021/06/02 02:47:38;;;;;;;11.43;5.40;;;;;;;11.31;100.00;99417.00;1657113;86;21090;-81
2021/06/02 02:50:19;;;;;;;25.57;13.20;;;;;;;11.33;100.00;99423.58;1654014;87;21047;-81
2021/06/02 02:53:14;;;;;;;46.13;21.87;;;;;;;11.34;100.00;99415.80;1673196;85;21184;-81
2021/06/02 02:55:42;;;;;;;37.80;20.72;;;;;;;11.33;100.00;99412.26;1681099;85;21104;-81
2021/06/02 02:58:28;;;;;;;141.95;61.98;;;;;;;11.34;100.00;99411.73;1658302;85;21570;-81
2021/06/02 03:01:21;;;;;;;244.35;115.60;;;;;;;11.35;100.00;99407.48;1655181;87;21122;-81
2021/06/02 03:04:19;;;;;;;445.68;181.20;;;;;;;11.36;100.00;99401.55;1628659;86;21074;-80
2021/06/02 03:06:55;;;;;;;336.82;124.60;;;;;;;11.35;100.00;99414.75;1627291;87;21129;-80
2021/06/02 03:09:41;;;;;;;270.25;103.22;;;;;;;11.37;100.00;99407.30;1628525;87;21126;-79
2021/06/02 03:12:41;;;;;;;572.92;259.60;;;;;;;11.36;100.00;99399.67;1628823;88;21058;-82
2021/06/02 03:15:33;;;;;;;244.43;106.63;;;;;;;11.36;100.00;99397.48;1625347;88;21134;-78
2021/06/02 03:18:23;;;;;;;175.27;77.20;;;;;;;11.37;100.00;99394.59;1606387;89;21097;-81
2021/06/02 03:21:15;;;;;;;53.92;27.55;;;;;;;11.38;100.00;99396.78;1621371;88;21219;-82
2021/06/02 03:24:15;;;;;;;38.75;20.02;;;;;;;11.38;100.00;99397.64;1629196;87;21074;-81
2021/06/02 03:27:03;;;;;;;95.35;53.80;;;;;;;11.41;100.00;99393.69;1629087;88;21098;-80
2021/06/02 03:29:48;;;;;;;41.98;22.93;;;;;;;11.42;100.00;99402.16;1608134;86;21560;-80
2021/06/02 03:32:33;;;;;;;47.80;25.32;;;;;;;11.43;100.00;99393.51;1560658;92;21151;-81
2021/06/02 03:35:22;;;;;;;67.05;39.40;;;;;;;11.44;100.00;99385.69;1560345;92;21087;-80
2021/06/02 03:38:01;;;;;;;90.07;48.85;;;;;;;11.44;100.00;99386.55;1576590;90;21074;-80
2021/06/02 03:41:07;;;;;;;86.72;47.17;;;;;;;11.45;100.00;99385.50;1586469;89;21077;-81
2021/06/02 03:43:49;;;;;;;61.45;32.17;;;;;;;11.46;100.00;99381.77;1586463;90;21084;-79
2021/06/02 03:46:40;;;;;;;41.42;19.75;;;;;;;11.48;100.00;99385.13;1585296;90;21138;-80
2021/06/02 03:49:36;;;;;;;75.17;37.85;;;;;;;11.50;100.00;99394.41;1556790;92;21140;-81
2021/06/02 03:52:08;;;;;;;69.12;34.30;;;;;;;11.51;100.00;99399.64;1554039;92;21119;-83
2021/06/02 03:55:06;;;;;;;60.88;28.83;;;;;;;11.52;100.00;99395.88;1568119;90;21609;-81
2021/06/02 03:57:45;;;;;;;44.73;22.77;;;;;;;11.53;100.00;99396.74;1551861;92;21563;-81
2021/06/02 04:00:18;;;;;;;51.92;27.65;;;;;;;11.55;100.00;99396.03;1472380;97;21622;-81
2021/06/02 04:03:08;;;;;;;44.13;21.70;;;;;;;11.55;100.00;99400.09;1479816;97;21655;-80
2021/06/02 04:05:58;;;;;;;63.87;30.85;;;;;;;11.57;100.00;99402.08;1479351;97;21240;-80
2021/06/02 04:08:50;;;;;;;83.90;41.90;;;;;;;11.57;100.00;99399.37;1486061;97;21210;-80
2021/06/02 04:11:46;;;;;;;128.35;61.23;;;;;;;11.57;100.00;99414.27;1557049;92;21194;-81
2021/06/02 04:14:35;;;;;;;72.90;33.58;;;;;;;11.58;100.00;99407.83;1556884;92;21130;-80
2021/06/02 04:17:02;;;;;;;159.67;73.57;;;;;;;11.58;100.00;99400.54;1556824;91;21097;-80
2021/06/02 04:19:32;;;;;;;73.28;33.33;;;;;;;11.62;100.00;99398.80;1573709;91;21155;-81
2021/06/02 04:22:08;;;;;;;105.85;48.17;;;;;;;11.63;100.00;99408.59;1579892;91;21071;-83
2021/06/02 04:24:37;;;;;;;44.05;20.90;;;;;;;11.64;100.00;99404.34;1579418;91;21130;-80
2021/06/02 04:27:05;;;;;;;46.40;24.82;;;;;;;11.67;100.00;99404.45;1579382;89;21114;-81
2021/06/02 04:29:32;;;;;;;33.35;19.17;;;;;;;11.68;100.00;99415.09;1596829;88;21103;-80
2021/06/02 04:32:06;;;;;;;40.43;24.92;;;;;;;11.69;100.00;99411.89;1603513;89;21083;-80
2021/06/02 04:34:34;;;;;;;44.80;25.72;;;;;;;11.71;100.00;99417.42;1632027;87;21078;-81
2021/06/02 04:37:05;;;;;;;42.80;21.25;;;;;;;11.71;100.00;99416.06;1676913;86;21589;-82
2021/06/02 04:39:37;;;;;;;102.05;54.48;;;;;;;11.71;100.00;99425.55;1648043;87;21214;-81
2021/06/02 04:42:05;;;;;;;122.07;60.40;;;;;;;11.70;100.00;99431.98;1647169;87;21104;-81
2021/06/02 04:44:34;;;;;;;58.60;29.92;;;;;;;11.71;100.00;99432.84;1631256;87;21087;-82
2021/06/02 04:47:02;;;;;;;33.33;16.05;;;;;;;11.72;100.00;99443.48;1636670;88;21089;-80
2021/06/02 04:50:00;;;;;;;64.75;36.30;;;;;;;11.74;100.00;99436.53;1636591;88;21061;-81
2021/06/02 04:52:58;;;;;;;189.18;90.62;;;;;;;11.75;100.00;99427.35;1566505;92;21109;-80
2021/06/02 04:55:58;;;;;;;324.98;114.95;;;;;;;11.74;100.00;99433.30;1600185;90;21124;-81
2021/06/02 04:58:34;;;;;;;60.25;30.23;;;;;;;11.73;100.00;99432.96;1644113;87;21289;-82
2021/06/02 05:01:55;;;;;;;242.37;118.55;;;;;;;11.75;100.00;99439.02;1638423;87;21612;-82
2021/06/02 05:05:00;;;;;;;163.05;65.87;;;;;;;11.77;100.00;99441.04;1643735;87;21078;-82
2021/06/02 05:08:14;;;;;;;287.90;139.15;;;;;;;11.80;100.00;99442.52;1643697;87;21155;-81
2021/06/02 05:11:06;;;;;;;258.57;131.18;;;;;;;11.82;100.00;99436.91;1643868;86;21059;-82
2021/06/02 05:14:13;;;;;;;;;;;;;;;11.83;100.00;99441.27;1645665;87;21620;-79
2021/06/02 05:17:36;;;;;;;174.45;86.47;;;;;;;11.83;100.00;99443.48;1643370;87;20166;-79
2021/06/02 05:20:38;;;;;;;126.53;54.15;;;;;;;11.82;100.00;99447.21;1622931;88;21098;-81
2021/06/02 05:26:54;;;;;;;50.73;29.67;;;;;;;11.88;100.00;99453.23;1562011;91;21594;-82
2021/06/02 05:29:53;;;;;;;178.90;98.52;;;;;;;11.87;100.00;99451.54;1537130;92;21187;-82
2021/06/02 05:32:43;;;;;;;72.25;41.42;;;;;;;11.91;100.00;99456.08;1527021;94;21133;-79
2021/06/02 05:35:53;;;;;;;62.65;37.03;;;;;;;11.92;100.00;99455.89;1558059;91;21182;-80
2021/06/02 05:38:46;;;;;;;47.73;28.07;;;;;;;11.94;100.00;99455.17;1523645;93;21130;-79
2021/06/02 05:41:27;;;;;;;299.67;128.72;;;;;;;11.97;100.00;99447.19;1559691;91;21211;-79
2021/06/02 05:44:35;;;;;;;216.75;109.32;;;;;;;11.96;100.00;99447.69;1545432;91;21082;-81
2021/06/02 05:47:23;;;;;;;171.75;86.22;;;;;;;11.94;100.00;99441.62;1548963;93;21071;-82
2021/06/02 05:50:32;;;;;;;87.42;47.50;;;;;;;11.93;100.00;99437.27;1550713;93;21133;-84
2021/06/02 05:53:40;;;;;;;212.40;102.55;;;;;;;11.97;100.00;99430.94;1534202;92;21131;-85
2021/06/02 05:56:33;;;;;;;194.40;91.72;;;;;;;12.01;100.00;99432.73;1536187;92;21159;-80
2021/06/02 05:59:35;;;;;;;98.67;48.48;;;;;;;12.03;100.00;99448.28;1535460;93;21065;-79
2021/06/02 06:02:21;;;;;;;176.85;84.50;;;;;;;12.01;100.00;99448.47;1535635;92;21152;-82
2021/06/02 06:05:24;;;;;;;277.55;123.22;;;;;;;11.99;100.00;99446.48;1510083;94;21160;-87
2021/06/02 06:08:09;;;;;;;127.05;59.10;;;;;;;12.01;100.00;99447.11;1488935;95;21083;-86
2021/06/02 06:11:07;;;;;;;89.40;47.10;;;;;;;12.03;100.00;99453.17;1480571;90;21143;-89
2021/06/02 06:14:05;;;;;;;309.65;129.50;;;;;;;12.04;100.00;99457.58;1477548;97;21109;-79
2021/06/02 06:17:15;;;;;;;243.95;105.37;;;;;;;12.08;100.00;99462.91;1479410;96;21089;-82
2021/06/02 06:20:22;;;;;;;308.65;138.03;;;;;;;12.14;100.00;99455.87;1472623;97;21108;-79
2021/06/02 06:23:18;;;;;;;203.18;92.62;;;;;;;12.17;100.00;99454.66;1484759;96;21611;-80
2021/06/02 06:26:09;;;;;;;74.27;42.40;;;;;;;12.19;100.00;99456.12;1486780;95;21110;-86
2021/06/02 06:29:14;;;;;;;63.73;39.33;;;;;;;12.24;100.00;99458.26;1474440;95;21125;-85
2021/06/02 06:31:44;;;;;;;93.97;58.10;;;;;;;12.26;100.00;99448.05;1462431;98;21075;-88
2021/06/02 06:34:14;;;;;;;90.03;48.42;;;;;;;12.27;100.00;99444.29;1482067;95;21074;-84
2021/06/02 06:36:44;;;;;;;34.18;18.50;;;;;;;12.29;100.00;99447.67;1482064;96;21126;-87
2021/06/02 06:39:50;;;;;;;68.75;43.83;;;;;;;12.30;100.00;99452.04;1526630;94;21094;-85
2021/06/02 06:42:36;;;;;;;53.95;36.17;;;;;;;12.31;100.00;99455.91;1505809;95;21142;-84
2021/06/02 06:45:14;;;;;;;36.30;21.50;;;;;;;12.26;100.00;99454.83;1557417;91;21064;-79
2021/06/02 06:47:38;;;;;;;19.40;9.58;;;;;;;12.23;100.00;99455.22;1555212;92;21132;-86
2021/06/02 06:50:09;;;;;;;22.85;12.43;;;;;;;12.23;100.00;99463.34;1618781;85;21076;-83
2021/06/02 06:52:37;;;;;;;28.83;15.70;;;;;;;12.20;100.00;99452.39;1639882;85;21026;-86
2021/06/02 06:55:06;;;;;;;26.25;12.18;;;;;;;12.22;100.00;99449.48;1657589;86;21104;-83
2021/06/02 06:57:35;;;;;;;39.00;21.45;;;;;;;12.26;100.00;99445.34;1664394;86;21096;-84
2021/06/02 07:00:05;;;;;;;48.65;31.27;;;;;;;12.30;100.00;99448.80;1664005;86;21068;-80
2021/06/02 07:05:45;;;;;;;36.50;16.97;;;;;;;12.34;100.00;99448.75;1684014;81;21137;-82
2021/06/02 07:08:13;;;;;;;22.62;11.38;;;;;;;12.35;100.00;99458.53;1709847;82;21096;-85
2021/06/02 07:10:40;;;;;;;18.87;8.65;;;;;;;12.38;100.00;99456.47;1674508;84;21131;-82
2021/06/02 07:13:14;;;;;;;19.25;8.50;;;;;;;12.39;100.00;99458.98;1726274;82;20995;-86
2021/06/02 07:16:03;;;;;;;19.20;9.83;;;;;;;12.40;100.00;99459.84;1710595;78;21168;31
2021/06/02 07:18:32;;;;;;;23.90;12.95;;;;;;;12.42;100.00;99463.19;1702298;84;21036;-83
2021/06/02 07:21:00;;;;;;;23.85;12.18;;;;;;;12.45;100.00;99458.73;1707410;84;21036;-83
2021/06/02 07:23:28;;;;;;;52.62;34.48;;;;;;;12.47;100.00;99457.48;1708201;84;21115;-78
2021/06/02 07:25:58;;;;;;;51.00;32.80;;;;;;;12.45;100.00;99457.38;1646893;87;21081;-80
2021/06/02 07:28:39;;;;;;;111.83;55.60;;;;;;;12.42;100.00;99465.38;1648210;87;21069;-88
2021/06/02 07:31:08;;;;;;;81.25;45.33;;;;;;;12.38;100.00;99463.24;1648846;87;21363;-80
2021/06/02 07:33:36;;;;;;;68.55;37.50;;;;;;;12.31;100.00;99465.92;1660851;86;21075;-85
2021/06/02 07:36:08;;;;;;;72.22;38.45;;;;;;;12.26;100.00;99464.31;1700117;84;21039;-83
2021/06/02 07:38:35;;;;;;;42.03;21.68;;;;;;;12.25;100.00;99460.78;1688579;84;21090;-83
2021/06/02 07:41:02;;;;;;;50.35;25.55;;;;;;;12.24;100.00;99464.51;1694541;84;21067;-79
2021/06/02 07:43:29;;;;;;;213.07;100.20;;;;;;;12.24;100.00;99462.33;1683854;84;21052;-83
2021/06/02 07:46:03;;;;;;;377.25;155.65;;;;;;;12.25;100.00;99463.98;1646644;86;21598;-85
2021/06/02 07:48:33;;;;;;;325.02;133.60;;;;;;;12.25;100.00;99464.84;1660761;86;21543;-84
2021/06/02 07:51:00;;;;;;;175.60;78.87;;;;;;;12.26;100.00;99464.31;1676351;86;21028;-79
2021/06/02 07:53:27;;;;;;;133.80;61.50;;;;;;;12.30;100.00;99474.55;1666444;84;21033;-80
2021/06/02 07:55:54;;;;;;;161.12;80.28;;;;;;;12.35;100.00;99469.91;1675121;84;21025;-79
2021/06/02 07:58:21;;;;;;;103.30;51.48;;;;;;;12.42;100.00;99474.03;1659851;86;21092;-82
2021/06/02 08:00:48;;;;;;;266.40;134.25;;;;;;;12.43;100.00;99474.34;1675976;86;21069;-81
2021/06/02 08:03:17;;;;;;;202.13;103.02;;;;;;;12.43;100.00;99472.98;1632389;86;21553;-80
2021/06/02 08:05:46;;;;;;;127.40;61.50;;;;;;;12.43;100.00;99470.27;1672988;86;21088;-83
2021/06/02 08:08:13;;;;;;;188.52;94.70;;;;;;;12.44;100.00;99475.50;1678099;86;21184;-82
2021/06/02 08:10:40;;;;;;;128.23;59.23;;;;;;;12.47;100.00;99473.76;1677590;86;21026;-85
2021/06/02 08:13:07;;;;;;;173.13;88.07;;;;;;;12.54;100.00;99472.45;1660075;86;21067;-84
2021/06/02 08:15:36;;;;;;;182.12;81.22;;;;;;;12.56;100.00;99473.62;1653808;85;21040;-84
2021/06/02 08:18:05;;;;;;;136.43;63.45;;;;;;;12.56;100.00;99469.55;1699593;84;21085;-83
2021/06/02 08:20:33;;;;;;;112.85;54.10;;;;;;;12.56;100.00;99474.98;1685173;84;21031;-81
2021/06/02 08:23:02;;;;;;;118.93;52.80;;;;;;;12.57;100.00;99474.78;1682963;85;21082;-82
2021/06/02 08:25:29;;;;;;;98.50;45.33;;;;;;;12.58;100.00;99467.47;1682751;85;21073;-81
2021/06/02 08:27:56;;;;;;;111.60;51.50;;;;;;;12.64;100.00;99471.59;1708277;83;21101;-81
2021/06/02 08:30:24;;;;;;;105.67;50.63;;;;;;;12.68;100.00;99477.46;1730693;83;21406;-80
2021/06/02 08:32:51;;;;;;;88.60;40.83;;;;;;;12.70;100.00;99472.14;1713700;82;21041;-81
2021/06/02 08:35:19;;;;;;;110.85;53.15;;;;;;;12.72;100.00;99474.66;1740806;82;21096;-84
2021/06/02 08:37:46;;;;;;;118.55;53.92;;;;;;;12.76;100.00;99472.39;1712094;82;21069;-80
2021/06/02 08:40:15;;;;;;;97.42;41.18;;;;;;;12.78;100.00;99475.20;1721775;83;21077;-82
2021/06/02 08:42:55;;;;;;;;;;;;;;;;;;;;;
2021/06/02 08:45:15;;;;;;;68.17;32.35;;;;;;;12.85;100.00;99479.33;1546773;92;21614;-78
2021/06/02 08:47:42;;;;;;;149.62;58.90;;;;;;;12.88;100.00;99484.36;1583422;89;21083;-81
2021/06/02 08:50:13;;;;;;;138.20;59.70;;;;;;;12.91;100.00;99484.80;1578198;90;21089;-79
2021/06/02 08:52:41;;;;;;;163.97;67.30;;;;;;;12.93;100.00;99481.05;1553646;92;21152;-76
2021/06/02 08:55:12;;;;;;;114.57;52.60;;;;;;;12.98;100.00;99486.69;1554058;92;21121;-81
2021/06/02 08:57:42;;;;;;;114.60;53.13;;;;;;;13.02;100.00;99487.99;1555316;92;21135;-83
2021/06/02 09:00:12;;;;;;;92.17;43.02;;;;;;;13.05;100.00;99493.86;1549559;92;21569;-77
2021/06/02 09:02:40;;;;;;;38.73;19.02;;;;;;;13.08;100.00;99491.25;1540758;92;21123;-80
2021/06/02 09:05:09;;;;;;;118.20;55.10;;;;;;;13.10;100.00;99494.09;1549552;92;21148;-84
2021/06/02 09:07:41;;;;;;;;;;;;;;;13.14;100.00;99504.52;1550253;92;21187;-79
2021/06/02 09:10:11;;;;;;;54.10;27.50;;;;;;;13.11;100.00;99501.70;1538789;92;20315;-80
2021/06/02 09:12:41;;;;;;;85.55;38.92;;;;;;;13.11;100.00;99499.83;1551335;92;21628;-80
2021/06/02 09:15:15;;;;;;;103.20;46.45;;;;;;;13.14;100.00;99498.60;1552042;92;21094;-82
2021/06/02 09:17:59;;;;;;;58.95;28.10;;;;;;;13.16;100.00;99496.52;1535491;92;21179;-79
2021/06/02 09:20:55;;;;;;;89.52;38.48;;;;;;;13.16;100.00;99503.30;1508496;95;21164;-83
2021/06/02 09:23:39;;;;;;;94.42;43.38;;;;;;;13.20;100.00;99506.45;1502091;95;21076;-83
2021/06/02 09:26:26;;;;;;;321.05;114.80;;;;;;;13.27;100.00;99508.15;1460969;98;21133;-82
2021/06/02 09:29:11;;;;;;;104.00;48.02;;;;;;;13.38;100.00;99510.84;1473864;97;21103;-81
2021/06/02 09:31:42;;;;;;;338.95;142.93;;;;;;;13.48;100.00;99515.38;1441546;100;21129;-76
2021/06/02 09:34:24;;;;;;;623.30;363.30;;;;;;;13.53;100.00;99511.20;1454900;99;21616;-78
2021/06/02 09:36:53;;;;;;;409.93;200.62;;;;;;;13.49;100.00;99516.20;1463275;98;21148;-81
2021/06/02 09:39:22;;;;;;;355.00;183.52;;;;;;;13.45;100.00;99520.37;1464109;98;21157;-82
2021/06/02 09:42:00;;;;;;;214.10;112.90;;;;;;;13.44;100.00;99511.94;1476723;96;21138;-78
2021/06/02 09:44:29;;;;;;;194.50;98.07;;;;;;;13.45;100.00;99514.95;1512533;94;21177;-80
2021/06/02 09:47:07;;;;;;;284.90;159.52;;;;;;;13.52;100.00;99521.77;1509090;94;21074;-84
2021/06/02 09:49:52;;;;;;;106.67;65.47;;;;;;;13.57;100.00;99517.40;1534063;93;21148;-78
2021/06/02 09:52:52;;;;;;;82.90;48.20;;;;;;;13.55;100.00;99524.09;1531302;93;21177;-81
2021/06/02 09:55:31;;;;;;;79.42;53.30;;;;;;;13.54;100.00;99529.19;1414281;101;21162;-82
2021/06/02 09:58:10;;;;;;;53.68;37.90;;;;;;;13.48;100.00;99529.48;1485282;96;21112;-81
2021/06/02 10:00:45;;;;;;;36.85;20.35;;;;;;;13.41;100.00;99534.88;1460908;98;21177;-75
2021/06/02 10:03:17;;;;;;;;;;;;;;;13.36;100.00;99529.75;1487253;95;21124;-81
2021/06/02 10:05:49;;;;;;;108.20;55.40;;;;;;;13.34;100.00;99535.91;1476440;96;20184;-79
2021/06/02 10:08:31;;;;;;;423.20;183.47;;;;;;;13.34;100.00;99539.45;1490746;95;21071;-81
2021/06/02 10:11:16;;;;;;;260.10;122.28;;;;;;;13.33;100.00;99533.69;1476093;96;21112;-82
2021/06/02 10:13:50;;;;;;;244.10;119.85;;;;;;;13.35;100.00;99533.48;1488445;95;21668;-79
2021/06/02 10:19:14;;;;;;;408.12;206.60;;;;;;;13.34;100.00;99543.52;1478732;96;21138;-82
2021/06/02 10:21:46;;;;;;;116.80;59.80;;;;;;;13.34;100.00;99538.09;1479547;97;21130;-80
2021/06/02 10:24:13;;;;;;;109.17;60.38;;;;;;;13.36;100.00;99543.32;1516852;93;21084;-80
2021/06/02 10:26:40;;;;;;;362.52;184.57;;;;;;;13.35;100.00;99545.20;1534441;93;21111;-77
2021/06/02 10:29:08;;;;;;;356.87;177.82;;;;;;;13.34;100.00;99548.12;1509243;95;21161;-79
2021/06/02 10:31:35;;;;;;;140.18;73.85;;;;;;;13.34;100.00;99560.34;1514296;94;21124;-81
2021/06/02 10:34:03;;;;;;;107.95;53.38;;;;;;;13.33;100.00;99559.48;1592829;88;21073;-78
2021/06/02 10:36:30;;;;;;;42.50;22.20;;;;;;;13.35;100.00;99567.43;1596385;90;21046;-81
2021/06/02 10:38:59;;;;;;;31.73;15.00;;;;;;;13.34;100.00;99564.41;1596811;90;21110;-80
2021/06/02 10:41:41;;;;;;;224.05;111.30;;;;;;;13.30;100.00;99570.73;1548624;93;21052;-82
2021/06/02 10:44:13;;;;;;;130.87;69.50;;;;;;;13.26;100.00;99570.80;1503580;92;21059;-78
2021/06/02 10:46:46;;;;;;;504.60;250.05;;;;;;;13.21;100.00;99573.27;1504190;96;21159;-79
2021/06/02 10:49:16;;;;;;;366.08;167.03;;;;;;;13.21;100.00;99567.34;1481011;97;21184;-82
2021/06/02 10:51:44;;;;;;;92.65;44.00;;;;;;;13.21;100.00;99571.91;1477752;96;21088;-81
2021/06/02 10:54:21;;;;;;;68.42;33.78;;;;;;;13.22;100.00;99566.81;1480593;97;21686;-82
2021/06/02 10:56:59;;;;;;;85.90;47.62;;;;;;;13.26;100.00;99580.30;1438320;100;21228;-82
2021/06/02 10:59:38;;;;;;;52.83;27.85;;;;;;;13.26;100.00;99581.16;1388459;103;21150;-80
2021/06/02 11:02:18;;;;;;;50.85;29.37;;;;;;;13.28;100.00;99580.95;1392720;102;21692;-80
2021/06/02 11:05:04;;;;;;;46.13;25.92;;;;;;;13.28;100.00;99584.50;1386540;102;21751;-85
2021/06/02 11:07:38;;;;;;;39.50;22.22;;;;;;;13.33;100.00;99581.73;1385110;103;21208;-86
2021/06/02 11:13:02;;;;;;;47.23;27.22;;;;;;;13.28;100.00;99594.01;1355221;105;21179;-81
2021/06/02 11:15:43;;;;;;;24.87;12.58;;;;;;;13.23;100.00;99588.86;1355066;106;21216;-81
2021/06/02 11:18:18;;;;;;;77.17;43.35;;;;;;;13.16;100.00;99594.24;1350939;106;21215;-78
2021/06/02 11:20:58;;;;;;;75.10;41.83;;;;;;;13.10;100.00;99589.59;1346029;105;21324;-77
2021/06/02 11:23:34;;;;;;;59.33;36.38;;;;;;;13.07;100.00;99600.87;1386850;103;21287;-80
2021/06/02 11:26:25;;;;;;;52.33;30.77;;;;;;;13.08;100.00;99605.24;1390037;103;21281;-81
2021/06/02 11:28:57;;;;;;;44.80;24.98;;;;;;;13.07;100.00;99606.30;1397341;100;21119;-80
2021/06/02 11:31:27;;;;;;;41.73;23.57;;;;;;;13.06;100.00;99602.72;1377109;103;21187;-80
2021/06/02 11:34:28;;;;;;;47.27;28.45;;;;;;;13.01;100.00;99604.36;1393395;103;21199;-77
2021/06/02 11:37:05;;;;;;;25.80;13.08;;;;;;;12.99;100.00;99604.55;1405012;100;21136;-80
2021/06/02 11:39:36;;;;;;;28.50;14.20;;;;;;;12.95;100.00;99610.59;1466200;98;21154;-76
2021/06/02 11:42:05;;;;;;;36.33;20.23;;;;;;;12.88;100.00;99609.17;1456355;99;21146;-78
2021/06/02 11:44:39;;;;;;;29.65;15.98;;;;;;;12.83;100.00;99610.28;1455978;99;21153;-78
2021/06/02 11:47:08;;;;;;;26.25;13.13;;;;;;;12.84;100.00;99611.97;1469291;96;21151;-79
2021/06/02 11:49:40;;;;;;;20.12;10.82;;;;;;;12.82;100.00;99616.72;1514286;94;21194;-81
2021/06/02 11:52:12;;;;;;;24.00;11.97;;;;;;;12.82;100.00;99623.51;1523570;94;21095;-83
2021/06/02 11:54:59;;;;;;;29.87;15.10;;;;;;;12.82;100.00;99614.01;1523590;94;21561;-79
2021/06/02 11:57:38;;;;;;;27.65;15.88;;;;;;;12.87;100.00;99621.05;1524065;94;21719;-81
2021/06/02 12:00:12;;;;;;;25.05;14.78;;;;;;;12.93;100.00;99622.16;1523662;94;21175;-80
2021/06/02 12:02:39;;;;;;;27.80;17.07;;;;;;;12.96;100.00;99625.81;1524141;94;21123;-79
2021/06/02 12:05:31;;;;;;;19.90;11.80;;;;;;;12.96;100.00;99624.46;1523137;94;21148;-80
2021/06/02 12:08:09;;;;;;;22.70;12.63;;;;;;;12.97;100.00;99624.27;1524383;94;21112;-86
2021/06/02 12:10:47;;;;;;;21.17;11.12;;;;;;;13.00;100.00;99625.77;1593094;90;21825;-81
2021/06/02 12:16:11;;;;;;;20.25;11.35;;;;;;;13.01;100.00;99630.14;1578756;91;21106;-82
2021/06/02 12:18:50;;;;;;;19.62;11.33;;;;;;;13.04;100.00;99627.87;1576152;90;21252;-81
2021/06/02 12:21:29;;;;;;;17.77;10.00;;;;;;;13.10;100.00;99631.66;1616710;89;21102;-82